sensor_id;sensor_type;location;lat;lon;timestamp;P1;durP1;ratioP1;P2;durP2;ratioP2
36185;SDS011;22228;53.222;7.446;2022-09-02T00:00:52;1.73;;;0.70;;
36185;SDS011;22228;53.222;7.446;2022-09-02T00:03:18;1.33;;;0.70;;
36185;SDS011;22228;53.222;7.446;2022-09-02T00:05:39;0.80;;;0.80;;
36185;SDS011;22228;53.222;7.446;2022-09-02T00:08:01;0.60;;;0.60;;
36185;SDS011;22228;53.222;7.446;2022-09-02T00:10:23;0.87;;;0.67;;
36185;SDS011;22228;53.222;7.446;2022-09-02T00:12:44;2.40;;;0.60;;
36185;SDS011;22228;53.222;7.446;2022-09-02T00:15:05;2.53;;;0.73;;
36185;SDS011;22228;53.222;7.446;2022-09-02T00:17:26;1.50;;;0.60;;
36185;SDS011;22228;53.222;7.446;2022-09-02T00:19:47;1.47;;;0.70;;
36185;SDS011;22228;53.222;7.446;2022-09-02T00:22:07;0.87;;;0.60;;
36185;SDS011;22228;53.222;7.446;2022-09-02T00:24:28;1.13;;;0.60;;
36185;SDS011;22228;53.222;7.446;2022-09-02T00:26:49;1.17;;;0.60;;
36185;SDS011;22228;53.222;7.446;2022-09-02T00:29:10;0.70;;;0.70;;
36185;SDS011;22228;53.222;7.446;2022-09-02T00:31:33;0.60;;;0.60;;
36185;SDS011;22228;53.222;7.446;2022-09-02T00:33:54;1.73;;;0.70;;
36185;SDS011;22228;53.222;7.446;2022-09-02T00:36:15;1.33;;;0.57;;
36185;SDS011;22228;53.222;7.446;2022-09-02T00:38:36;5.33;;;0.80;;
36185;SDS011;22228;53.222;7.446;2022-09-02T00:40:57;1.67;;;0.70;;
36185;SDS011;22228;53.222;7.446;2022-09-02T00:43:24;1.73;;;0.80;;
36185;SDS011;22228;53.222;7.446;2022-09-02T00:45:57;0.67;;;0.67;;
36185;SDS011;22228;53.222;7.446;2022-09-02T00:48:18;0.93;;;0.70;;
36185;SDS011;22228;53.222;7.446;2022-09-02T00:50:38;1.47;;;0.70;;
36185;SDS011;22228;53.222;7.446;2022-09-02T00:53:01;2.10;;;0.70;;
36185;SDS011;22228;53.222;7.446;2022-09-02T00:55:24;0.83;;;0.80;;
36185;SDS011;22228;53.222;7.446;2022-09-02T00:57:48;0.70;;;0.67;;
36185;SDS011;22228;53.222;7.446;2022-09-02T01:00:13;2.20;;;0.90;;
36185;SDS011;22228;53.222;7.446;2022-09-02T01:02:37;0.83;;;0.70;;
36185;SDS011;22228;53.222;7.446;2022-09-02T01:04:59;1.97;;;1.00;;
36185;SDS011;22228;53.222;7.446;2022-09-02T01:07:21;1.10;;;1.03;;
36185;SDS011;22228;53.222;7.446;2022-09-02T01:09:42;1.23;;;0.80;;
36185;SDS011;22228;53.222;7.446;2022-09-02T01:12:03;1.73;;;0.70;;
36185;SDS011;22228;53.222;7.446;2022-09-02T01:14:24;0.80;;;0.70;;
36185;SDS011;22228;53.222;7.446;2022-09-02T01:16:48;1.87;;;0.80;;
36185;SDS011;22228;53.222;7.446;2022-09-02T01:19:13;0.80;;;0.80;;
36185;SDS011;22228;53.222;7.446;2022-09-02T01:21:43;0.80;;;0.80;;
36185;SDS011;22228;53.222;7.446;2022-09-02T01:24:05;3.23;;;0.80;;
36185;SDS011;22228;53.222;7.446;2022-09-02T01:26:26;2.77;;;0.80;;
36185;SDS011;22228;53.222;7.446;2022-09-02T01:28:46;1.03;;;0.77;;
36185;SDS011;22228;53.222;7.446;2022-09-02T01:31:07;1.57;;;0.80;;
36185;SDS011;22228;53.222;7.446;2022-09-02T01:33:28;1.00;;;0.73;;
36185;SDS011;22228;53.222;7.446;2022-09-02T01:35:49;0.80;;;0.80;;
36185;SDS011;22228;53.222;7.446;2022-09-02T01:38:11;1.00;;;0.93;;
36185;SDS011;22228;53.222;7.446;2022-09-02T01:40:32;1.40;;;0.90;;
36185;SDS011;22228;53.222;7.446;2022-09-02T01:42:54;0.80;;;0.80;;
36185;SDS011;22228;53.222;7.446;2022-09-02T01:45:16;0.80;;;0.80;;
36185;SDS011;22228;53.222;7.446;2022-09-02T01:47:37;0.70;;;0.70;;
36185;SDS011;22228;53.222;7.446;2022-09-02T01:49:58;0.77;;;0.77;;
36185;SDS011;22228;53.222;7.446;2022-09-02T01:52:22;1.00;;;1.00;;
36185;SDS011;22228;53.222;7.446;2022-09-02T01:54:45;1.00;;;1.00;;
36185;SDS011;22228;53.222;7.446;2022-09-02T01:57:06;1.77;;;0.80;;
36185;SDS011;22228;53.222;7.446;2022-09-02T01:59:26;1.27;;;0.90;;
36185;SDS011;22228;53.222;7.446;2022-09-02T02:01:47;1.00;;;1.00;;
36185;SDS011;22228;53.222;7.446;2022-09-02T02:04:09;1.67;;;0.90;;
36185;SDS011;22228;53.222;7.446;2022-09-02T02:06:31;1.27;;;0.97;;
36185;SDS011;22228;53.222;7.446;2022-09-02T02:08:51;1.47;;;0.80;;
36185;SDS011;22228;53.222;7.446;2022-09-02T02:11:19;0.90;;;0.90;;
36185;SDS011;22228;53.222;7.446;2022-09-02T02:13:44;1.00;;;1.00;;
36185;SDS011;22228;53.222;7.446;2022-09-02T02:16:04;1.57;;;1.00;;
36185;SDS011;22228;53.222;7.446;2022-09-02T02:18:25;1.07;;;0.97;;
36185;SDS011;22228;53.222;7.446;2022-09-02T02:20:48;1.80;;;0.87;;
36185;SDS011;22228;53.222;7.446;2022-09-02T02:23:08;1.13;;;1.10;;
36185;SDS011;22228;53.222;7.446;2022-09-02T02:25:30;1.77;;;0.90;;
36185;SDS011;22228;53.222;7.446;2022-09-02T02:27:52;1.13;;;0.90;;
36185;SDS011;22228;53.222;7.446;2022-09-02T02:30:14;0.87;;;0.87;;
36185;SDS011;22228;53.222;7.446;2022-09-02T02:32:35;0.90;;;0.90;;
36185;SDS011;22228;53.222;7.446;2022-09-02T02:34:56;1.47;;;1.00;;
36185;SDS011;22228;53.222;7.446;2022-09-02T02:37:16;2.63;;;1.00;;
36185;SDS011;22228;53.222;7.446;2022-09-02T02:39:37;1.10;;;1.00;;
36185;SDS011;22228;53.222;7.446;2022-09-02T02:41:58;1.23;;;1.13;;
36185;SDS011;22228;53.222;7.446;2022-09-02T02:44:19;1.23;;;1.00;;
36185;SDS011;22228;53.222;7.446;2022-09-02T02:46:40;1.93;;;1.17;;
36185;SDS011;22228;53.222;7.446;2022-09-02T02:49:01;1.00;;;1.00;;
36185;SDS011;22228;53.222;7.446;2022-09-02T02:51:23;1.00;;;1.00;;
36185;SDS011;22228;53.222;7.446;2022-09-02T02:53:43;1.30;;;1.00;;
36185;SDS011;22228;53.222;7.446;2022-09-02T02:56:04;1.10;;;1.10;;
36185;SDS011;22228;53.222;7.446;2022-09-02T02:58:25;2.10;;;1.00;;
36185;SDS011;22228;53.222;7.446;2022-09-02T03:00:48;1.73;;;1.10;;
36185;SDS011;22228;53.222;7.446;2022-09-02T03:03:10;1.90;;;0.90;;
36185;SDS011;22228;53.222;7.446;2022-09-02T03:05:31;1.20;;;1.10;;
36185;SDS011;22228;53.222;7.446;2022-09-02T03:07:55;2.37;;;1.13;;
36185;SDS011;22228;53.222;7.446;2022-09-02T03:10:17;1.03;;;0.97;;
36185;SDS011;22228;53.222;7.446;2022-09-02T03:12:39;1.93;;;1.10;;
36185;SDS011;22228;53.222;7.446;2022-09-02T03:14:59;1.30;;;1.20;;
36185;SDS011;22228;53.222;7.446;2022-09-02T03:17:23;5.00;;;1.23;;
36185;SDS011;22228;53.222;7.446;2022-09-02T03:19:43;1.00;;;1.00;;
36185;SDS011;22228;53.222;7.446;2022-09-02T03:22:04;1.23;;;1.00;;
36185;SDS011;22228;53.222;7.446;2022-09-02T03:24:25;2.67;;;1.50;;
36185;SDS011;22228;53.222;7.446;2022-09-02T03:26:46;6.87;;;1.40;;
36185;SDS011;22228;53.222;7.446;2022-09-02T03:29:06;1.67;;;1.30;;
36185;SDS011;22228;53.222;7.446;2022-09-02T03:31:27;1.77;;;1.20;;
36185;SDS011;22228;53.222;7.446;2022-09-02T03:33:50;3.30;;;1.80;;
36185;SDS011;22228;53.222;7.446;2022-09-02T03:36:17;1.27;;;1.17;;
36185;SDS011;22228;53.222;7.446;2022-09-02T03:38:39;1.63;;;1.20;;
36185;SDS011;22228;53.222;7.446;2022-09-02T03:40:59;1.87;;;1.23;;
36185;SDS011;22228;53.222;7.446;2022-09-02T03:43:20;1.37;;;1.27;;
36185;SDS011;22228;53.222;7.446;2022-09-02T03:45:42;1.33;;;1.23;;
36185;SDS011;22228;53.222;7.446;2022-09-02T03:48:05;2.10;;;1.13;;
36185;SDS011;22228;53.222;7.446;2022-09-02T03:50:32;1.93;;;1.30;;
36185;SDS011;22228;53.222;7.446;2022-09-02T03:52:56;1.50;;;1.40;;
36185;SDS011;22228;53.222;7.446;2022-09-02T03:55:18;4.00;;;1.70;;
36185;SDS011;22228;53.222;7.446;2022-09-02T03:57:38;2.10;;;1.50;;
36185;SDS011;22228;53.222;7.446;2022-09-02T04:00:00;2.73;;;1.43;;
36185;SDS011;22228;53.222;7.446;2022-09-02T04:02:22;1.90;;;1.40;;
36185;SDS011;22228;53.222;7.446;2022-09-02T04:04:42;2.40;;;1.37;;
36185;SDS011;22228;53.222;7.446;2022-09-02T04:07:04;1.50;;;1.40;;
36185;SDS011;22228;53.222;7.446;2022-09-02T04:09:25;3.07;;;1.60;;
36185;SDS011;22228;53.222;7.446;2022-09-02T04:11:46;1.90;;;1.37;;
36185;SDS011;22228;53.222;7.446;2022-09-02T04:14:07;1.80;;;1.40;;
36185;SDS011;22228;53.222;7.446;2022-09-02T04:16:28;2.33;;;1.60;;
36185;SDS011;22228;53.222;7.446;2022-09-02T04:18:57;1.33;;;1.23;;
36185;SDS011;22228;53.222;7.446;2022-09-02T04:21:19;2.10;;;1.40;;
36185;SDS011;22228;53.222;7.446;2022-09-02T04:23:41;1.97;;;1.67;;
36185;SDS011;22228;53.222;7.446;2022-09-02T04:26:03;1.77;;;1.60;;
36185;SDS011;22228;53.222;7.446;2022-09-02T04:28:24;4.63;;;1.83;;
36185;SDS011;22228;53.222;7.446;2022-09-02T04:30:45;2.07;;;1.40;;
36185;SDS011;22228;53.222;7.446;2022-09-02T04:33:07;1.60;;;1.50;;
36185;SDS011;22228;53.222;7.446;2022-09-02T04:35:28;2.50;;;1.67;;
36185;SDS011;22228;53.222;7.446;2022-09-02T04:37:49;3.17;;;1.63;;
36185;SDS011;22228;53.222;7.446;2022-09-02T04:40:11;4.07;;;1.60;;
36185;SDS011;22228;53.222;7.446;2022-09-02T04:42:33;3.63;;;1.70;;
36185;SDS011;22228;53.222;7.446;2022-09-02T04:44:53;4.27;;;1.70;;
36185;SDS011;22228;53.222;7.446;2022-09-02T04:47:15;3.53;;;1.70;;
36185;SDS011;22228;53.222;7.446;2022-09-02T04:49:36;3.80;;;1.33;;
36185;SDS011;22228;53.222;7.446;2022-09-02T04:51:57;2.33;;;1.40;;
36185;SDS011;22228;53.222;7.446;2022-09-02T04:54:19;1.70;;;1.60;;
36185;SDS011;22228;53.222;7.446;2022-09-02T04:56:43;2.63;;;1.70;;
36185;SDS011;22228;53.222;7.446;2022-09-02T04:59:05;1.90;;;1.57;;
36185;SDS011;22228;53.222;7.446;2022-09-02T05:01:28;3.57;;;1.40;;
36185;SDS011;22228;53.222;7.446;2022-09-02T05:03:53;1.83;;;1.50;;
36185;SDS011;22228;53.222;7.446;2022-09-02T05:06:18;1.73;;;1.63;;
36185;SDS011;22228;53.222;7.446;2022-09-02T05:08:39;2.13;;;1.40;;
36185;SDS011;22228;53.222;7.446;2022-09-02T05:11:03;3.03;;;1.30;;
36185;SDS011;22228;53.222;7.446;2022-09-02T05:13:25;2.90;;;1.60;;
36185;SDS011;22228;53.222;7.446;2022-09-02T05:15:45;1.13;;;1.13;;
36185;SDS011;22228;53.222;7.446;2022-09-02T05:18:07;2.53;;;1.83;;
36185;SDS011;22228;53.222;7.446;2022-09-02T05:20:27;1.20;;;1.20;;
36185;SDS011;22228;53.222;7.446;2022-09-02T05:22:48;2.17;;;1.80;;
36185;SDS011;22228;53.222;7.446;2022-09-02T05:25:09;1.80;;;1.40;;
36185;SDS011;22228;53.222;7.446;2022-09-02T05:27:29;1.77;;;1.67;;
36185;SDS011;22228;53.222;7.446;2022-09-02T05:29:54;2.23;;;1.40;;
36185;SDS011;22228;53.222;7.446;2022-09-02T05:32:17;3.00;;;1.40;;
36185;SDS011;22228;53.222;7.446;2022-09-02T05:34:39;1.43;;;1.30;;
36185;SDS011;22228;53.222;7.446;2022-09-02T05:37:00;1.70;;;1.30;;
36185;SDS011;22228;53.222;7.446;2022-09-02T05:39:23;1.83;;;1.53;;
36185;SDS011;22228;53.222;7.446;2022-09-02T05:41:43;5.17;;;1.87;;
36185;SDS011;22228;53.222;7.446;2022-09-02T05:44:05;2.73;;;1.13;;
36185;SDS011;22228;53.222;7.446;2022-09-02T05:46:28;1.63;;;1.47;;
36185;SDS011;22228;53.222;7.446;2022-09-02T05:48:50;1.17;;;1.17;;
36185;SDS011;22228;53.222;7.446;2022-09-02T05:51:31;2.07;;;1.33;;
36185;SDS011;22228;53.222;7.446;2022-09-02T05:53:56;2.20;;;1.30;;
36185;SDS011;22228;53.222;7.446;2022-09-02T05:56:18;1.87;;;1.40;;
36185;SDS011;22228;53.222;7.446;2022-09-02T05:58:38;1.77;;;1.37;;
36185;SDS011;22228;53.222;7.446;2022-09-02T06:00:59;1.93;;;1.40;;
36185;SDS011;22228;53.222;7.446;2022-09-02T06:03:27;3.20;;;1.50;;
36185;SDS011;22228;53.222;7.446;2022-09-02T06:05:52;3.03;;;1.73;;
36185;SDS011;22228;53.222;7.446;2022-09-02T06:08:14;2.47;;;1.60;;
36185;SDS011;22228;53.222;7.446;2022-09-02T06:10:39;3.13;;;1.50;;
36185;SDS011;22228;53.222;7.446;2022-09-02T06:13:02;4.77;;;1.33;;
36185;SDS011;22228;53.222;7.446;2022-09-02T06:15:25;2.57;;;1.20;;
36185;SDS011;22228;53.222;7.446;2022-09-02T06:17:49;2.77;;;1.33;;
36185;SDS011;22228;53.222;7.446;2022-09-02T06:20:11;3.27;;;1.40;;
36185;SDS011;22228;53.222;7.446;2022-09-02T06:22:34;2.47;;;1.70;;
36185;SDS011;22228;53.222;7.446;2022-09-02T06:24:54;2.60;;;1.70;;
36185;SDS011;22228;53.222;7.446;2022-09-02T06:27:17;3.73;;;1.27;;
36185;SDS011;22228;53.222;7.446;2022-09-02T06:29:41;1.47;;;1.37;;
36185;SDS011;22228;53.222;7.446;2022-09-02T06:32:02;3.87;;;1.53;;
36185;SDS011;22228;53.222;7.446;2022-09-02T06:34:23;4.40;;;1.60;;
36185;SDS011;22228;53.222;7.446;2022-09-02T06:36:48;3.67;;;1.80;;
36185;SDS011;22228;53.222;7.446;2022-09-02T06:39:11;2.03;;;1.70;;
36185;SDS011;22228;53.222;7.446;2022-09-02T06:41:33;2.07;;;1.50;;
36185;SDS011;22228;53.222;7.446;2022-09-02T06:43:58;2.00;;;1.40;;
36185;SDS011;22228;53.222;7.446;2022-09-02T06:46:20;2.50;;;1.57;;
36185;SDS011;22228;53.222;7.446;2022-09-02T06:48:46;3.17;;;1.57;;
36185;SDS011;22228;53.222;7.446;2022-09-02T06:51:14;1.97;;;1.20;;
36185;SDS011;22228;53.222;7.446;2022-09-02T06:53:37;2.93;;;1.77;;
36185;SDS011;22228;53.222;7.446;2022-09-02T06:55:57;4.97;;;1.43;;
36185;SDS011;22228;53.222;7.446;2022-09-02T06:58:18;2.37;;;1.60;;
36185;SDS011;22228;53.222;7.446;2022-09-02T07:00:39;2.33;;;1.83;;
36185;SDS011;22228;53.222;7.446;2022-09-02T07:03:00;3.10;;;1.40;;
36185;SDS011;22228;53.222;7.446;2022-09-02T07:05:40;1.70;;;1.40;;
36185;SDS011;22228;53.222;7.446;2022-09-02T07:08:01;1.67;;;1.37;;
36185;SDS011;22228;53.222;7.446;2022-09-02T07:10:23;2.20;;;1.60;;
36185;SDS011;22228;53.222;7.446;2022-09-02T07:12:46;1.40;;;1.30;;
36185;SDS011;22228;53.222;7.446;2022-09-02T07:15:09;1.40;;;1.30;;
36185;SDS011;22228;53.222;7.446;2022-09-02T07:17:31;2.03;;;1.60;;
36185;SDS011;22228;53.222;7.446;2022-09-02T07:19:59;5.67;;;4.90;;
36185;SDS011;22228;53.222;7.446;2022-09-02T07:22:23;2.03;;;1.40;;
36185;SDS011;22228;53.222;7.446;2022-09-02T07:24:43;4.07;;;1.50;;
36185;SDS011;22228;53.222;7.446;2022-09-02T07:27:06;2.10;;;1.33;;
36185;SDS011;22228;53.222;7.446;2022-09-02T07:29:26;2.33;;;1.50;;
36185;SDS011;22228;53.222;7.446;2022-09-02T07:31:49;1.97;;;1.33;;
36185;SDS011;22228;53.222;7.446;2022-09-02T07:34:11;2.10;;;1.40;;
36185;SDS011;22228;53.222;7.446;2022-09-02T07:36:32;2.33;;;1.30;;
36185;SDS011;22228;53.222;7.446;2022-09-02T07:38:55;3.07;;;1.50;;
36185;SDS011;22228;53.222;7.446;2022-09-02T07:41:16;2.17;;;1.50;;
36185;SDS011;22228;53.222;7.446;2022-09-02T07:43:39;1.80;;;1.40;;
36185;SDS011;22228;53.222;7.446;2022-09-02T07:46:00;1.40;;;1.30;;
36185;SDS011;22228;53.222;7.446;2022-09-02T07:48:21;2.23;;;1.50;;
36185;SDS011;22228;53.222;7.446;2022-09-02T07:50:42;1.50;;;1.30;;
36185;SDS011;22228;53.222;7.446;2022-09-02T07:53:06;1.60;;;1.50;;
36185;SDS011;22228;53.222;7.446;2022-09-02T07:55:28;3.00;;;1.40;;
36185;SDS011;22228;53.222;7.446;2022-09-02T07:57:49;1.70;;;1.60;;
36185;SDS011;22228;53.222;7.446;2022-09-02T08:00:14;1.90;;;1.40;;
36185;SDS011;22228;53.222;7.446;2022-09-02T08:02:41;2.50;;;1.43;;
36185;SDS011;22228;53.222;7.446;2022-09-02T08:05:05;3.27;;;1.30;;
36185;SDS011;22228;53.222;7.446;2022-09-02T08:07:26;1.90;;;1.20;;
36185;SDS011;22228;53.222;7.446;2022-09-02T08:09:46;1.70;;;1.30;;
36185;SDS011;22228;53.222;7.446;2022-09-02T08:12:07;1.17;;;1.17;;
36185;SDS011;22228;53.222;7.446;2022-09-02T08:14:28;1.67;;;1.30;;
36185;SDS011;22228;53.222;7.446;2022-09-02T08:16:50;1.60;;;1.17;;
36185;SDS011;22228;53.222;7.446;2022-09-02T08:19:11;1.13;;;1.00;;
36185;SDS011;22228;53.222;7.446;2022-09-02T08:21:32;2.60;;;1.00;;
36185;SDS011;22228;53.222;7.446;2022-09-02T08:23:53;1.40;;;1.40;;
36185;SDS011;22228;53.222;7.446;2022-09-02T08:26:14;2.40;;;1.30;;
36185;SDS011;22228;53.222;7.446;2022-09-02T08:28:35;2.47;;;1.03;;
36185;SDS011;22228;53.222;7.446;2022-09-02T08:30:57;4.03;;;1.70;;
36185;SDS011;22228;53.222;7.446;2022-09-02T08:33:18;1.63;;;1.20;;
36185;SDS011;22228;53.222;7.446;2022-09-02T08:35:39;3.33;;;1.53;;
36185;SDS011;22228;53.222;7.446;2022-09-02T08:38:00;2.77;;;1.17;;
36185;SDS011;22228;53.222;7.446;2022-09-02T08:40:21;3.47;;;1.23;;
36185;SDS011;22228;53.222;7.446;2022-09-02T08:42:44;2.57;;;1.30;;
36185;SDS011;22228;53.222;7.446;2022-09-02T08:45:09;1.73;;;1.40;;
36185;SDS011;22228;53.222;7.446;2022-09-02T08:47:33;2.17;;;1.07;;
36185;SDS011;22228;53.222;7.446;2022-09-02T08:49:57;3.33;;;1.27;;
36185;SDS011;22228;53.222;7.446;2022-09-02T08:52:24;2.50;;;1.20;;
36185;SDS011;22228;53.222;7.446;2022-09-02T08:54:50;1.87;;;1.37;;
36185;SDS011;22228;53.222;7.446;2022-09-02T08:57:13;1.50;;;1.30;;
36185;SDS011;22228;53.222;7.446;2022-09-02T08:59:33;2.17;;;2.00;;
36185;SDS011;22228;53.222;7.446;2022-09-02T09:01:57;3.77;;;1.67;;
36185;SDS011;22228;53.222;7.446;2022-09-02T09:04:25;4.07;;;1.40;;
36185;SDS011;22228;53.222;7.446;2022-09-02T09:07:05;1.70;;;1.60;;
36185;SDS011;22228;53.222;7.446;2022-09-02T09:09:37;4.70;;;1.27;;
36185;SDS011;22228;53.222;7.446;2022-09-02T09:12:07;2.00;;;1.10;;
36185;SDS011;22228;53.222;7.446;2022-09-02T09:14:32;2.57;;;1.20;;
36185;SDS011;22228;53.222;7.446;2022-09-02T09:16:59;2.87;;;1.23;;
36185;SDS011;22228;53.222;7.446;2022-09-02T09:19:27;3.27;;;1.23;;
36185;SDS011;22228;53.222;7.446;2022-09-02T09:21:56;1.20;;;1.10;;
36185;SDS011;22228;53.222;7.446;2022-09-02T09:24:24;2.60;;;1.10;;
36185;SDS011;22228;53.222;7.446;2022-09-02T09:26:48;3.67;;;1.23;;
36185;SDS011;22228;53.222;7.446;2022-09-02T09:29:09;4.97;;;1.00;;
36185;SDS011;22228;53.222;7.446;2022-09-02T09:31:29;1.87;;;1.17;;
36185;SDS011;22228;53.222;7.446;2022-09-02T09:33:53;1.30;;;1.03;;
36185;SDS011;22228;53.222;7.446;2022-09-02T09:36:14;1.67;;;1.10;;
36185;SDS011;22228;53.222;7.446;2022-09-02T09:38:35;3.10;;;1.33;;
36185;SDS011;22228;53.222;7.446;2022-09-02T09:41:10;1.77;;;1.03;;
36185;SDS011;22228;53.222;7.446;2022-09-02T09:43:33;2.23;;;1.00;;
36185;SDS011;22228;53.222;7.446;2022-09-02T09:45:53;3.90;;;1.23;;
36185;SDS011;22228;53.222;7.446;2022-09-02T09:48:21;1.00;;;0.90;;
36185;SDS011;22228;53.222;7.446;2022-09-02T09:50:45;3.03;;;1.17;;
36185;SDS011;22228;53.222;7.446;2022-09-02T09:53:13;1.77;;;0.90;;
36185;SDS011;22228;53.222;7.446;2022-09-02T09:55:34;1.70;;;0.97;;
36185;SDS011;22228;53.222;7.446;2022-09-02T09:58:10;5.27;;;1.20;;
36185;SDS011;22228;53.222;7.446;2022-09-02T10:00:31;2.27;;;1.20;;
36185;SDS011;22228;53.222;7.446;2022-09-02T10:02:53;0.90;;;0.87;;
36185;SDS011;22228;53.222;7.446;2022-09-02T10:05:16;1.80;;;0.90;;
36185;SDS011;22228;53.222;7.446;2022-09-02T10:07:52;2.70;;;1.00;;
36185;SDS011;22228;53.222;7.446;2022-09-02T10:10:15;2.57;;;0.80;;
36185;SDS011;22228;53.222;7.446;2022-09-02T10:12:37;4.50;;;1.10;;
36185;SDS011;22228;53.222;7.446;2022-09-02T10:14:59;3.37;;;1.00;;
36185;SDS011;22228;53.222;7.446;2022-09-02T10:17:26;1.83;;;0.80;;
36185;SDS011;22228;53.222;7.446;2022-09-02T10:19:58;2.43;;;1.10;;
36185;SDS011;22228;53.222;7.446;2022-09-02T10:22:36;1.33;;;1.10;;
36185;SDS011;22228;53.222;7.446;2022-09-02T10:25:11;1.97;;;1.13;;
36185;SDS011;22228;53.222;7.446;2022-09-02T10:27:49;0.80;;;0.80;;
36185;SDS011;22228;53.222;7.446;2022-09-02T10:30:18;1.93;;;0.80;;
36185;SDS011;22228;53.222;7.446;2022-09-02T10:32:46;9.90;;;1.20;;
36185;SDS011;22228;53.222;7.446;2022-09-02T10:35:35;2.73;;;0.90;;
36185;SDS011;22228;53.222;7.446;2022-09-02T10:38:05;1.20;;;0.90;;
36185;SDS011;22228;53.222;7.446;2022-09-02T10:40:47;4.87;;;1.00;;
36185;SDS011;22228;53.222;7.446;2022-09-02T10:43:17;4.27;;;0.90;;
36185;SDS011;22228;53.222;7.446;2022-09-02T10:45:49;1.63;;;0.70;;
36185;SDS011;22228;53.222;7.446;2022-09-02T10:48:20;1.00;;;0.63;;
36185;SDS011;22228;53.222;7.446;2022-09-02T10:50:50;2.90;;;0.90;;
36185;SDS011;22228;53.222;7.446;2022-09-02T10:53:27;1.43;;;0.60;;
36185;SDS011;22228;53.222;7.446;2022-09-02T10:55:55;4.83;;;1.10;;
36185;SDS011;22228;53.222;7.446;2022-09-02T10:58:18;2.07;;;0.70;;
36185;SDS011;22228;53.222;7.446;2022-09-02T11:00:46;1.30;;;0.60;;
36185;SDS011;22228;53.222;7.446;2022-09-02T11:03:12;2.47;;;0.87;;
36185;SDS011;22228;53.222;7.446;2022-09-02T11:05:38;2.87;;;1.10;;
36185;SDS011;22228;53.222;7.446;2022-09-02T11:08:05;2.47;;;1.03;;
36185;SDS011;22228;53.222;7.446;2022-09-02T11:10:29;2.97;;;0.90;;
36185;SDS011;22228;53.222;7.446;2022-09-02T11:12:54;4.40;;;0.80;;
36185;SDS011;22228;53.222;7.446;2022-09-02T11:15:20;4.90;;;0.60;;
36185;SDS011;22228;53.222;7.446;2022-09-02T11:17:50;1.63;;;0.70;;
36185;SDS011;22228;53.222;7.446;2022-09-02T11:20:21;1.83;;;0.63;;
36185;SDS011;22228;53.222;7.446;2022-09-02T11:22:49;4.13;;;0.70;;
36185;SDS011;22228;53.222;7.446;2022-09-02T11:25:16;2.37;;;0.60;;
36185;SDS011;22228;53.222;7.446;2022-09-02T11:27:42;1.77;;;0.57;;
36185;SDS011;22228;53.222;7.446;2022-09-02T11:30:10;1.50;;;0.70;;
36185;SDS011;22228;53.222;7.446;2022-09-02T11:32:34;1.67;;;0.63;;
36185;SDS011;22228;53.222;7.446;2022-09-02T11:35:02;3.13;;;0.60;;
36185;SDS011;22228;53.222;7.446;2022-09-02T11:37:27;3.00;;;0.80;;
36185;SDS011;22228;53.222;7.446;2022-09-02T11:39:51;1.77;;;0.70;;
36185;SDS011;22228;53.222;7.446;2022-09-02T11:42:20;1.27;;;0.80;;
36185;SDS011;22228;53.222;7.446;2022-09-02T11:45:03;3.43;;;0.80;;
36185;SDS011;22228;53.222;7.446;2022-09-02T11:50:23;2.80;;;0.67;;
36185;SDS011;22228;53.222;7.446;2022-09-02T11:52:55;1.00;;;0.70;;
36185;SDS011;22228;53.222;7.446;2022-09-02T11:55:24;3.13;;;0.83;;
36185;SDS011;22228;53.222;7.446;2022-09-02T11:57:51;2.80;;;0.90;;
36185;SDS011;22228;53.222;7.446;2022-09-02T12:00:24;3.07;;;0.80;;
36185;SDS011;22228;53.222;7.446;2022-09-02T12:02:47;5.23;;;0.70;;
36185;SDS011;22228;53.222;7.446;2022-09-02T12:08:09;1.00;;;0.50;;
36185;SDS011;22228;53.222;7.446;2022-09-02T12:13:30;3.53;;;0.60;;
36185;SDS011;22228;53.222;7.446;2022-09-02T12:19:15;0.50;;;0.50;;
36185;SDS011;22228;53.222;7.446;2022-09-02T12:24:49;1.23;;;0.57;;
36185;SDS011;22228;53.222;7.446;2022-09-02T12:27:22;1.80;;;0.50;;
36185;SDS011;22228;53.222;7.446;2022-09-02T12:29:44;0.60;;;0.40;;
36185;SDS011;22228;53.222;7.446;2022-09-02T12:32:05;2.90;;;0.43;;
36185;SDS011;22228;53.222;7.446;2022-09-02T12:40:09;2.90;;;0.40;;
36185;SDS011;22228;53.222;7.446;2022-09-02T12:42:36;1.33;;;0.50;;
36185;SDS011;22228;53.222;7.446;2022-09-02T12:45:02;2.23;;;0.50;;
36185;SDS011;22228;53.222;7.446;2022-09-02T12:47:30;2.20;;;0.50;;
36185;SDS011;22228;53.222;7.446;2022-09-02T12:50:01;0.47;;;0.40;;
36185;SDS011;22228;53.222;7.446;2022-09-02T12:52:37;1.80;;;0.50;;
36185;SDS011;22228;53.222;7.446;2022-09-02T12:55:01;2.07;;;0.50;;
36185;SDS011;22228;53.222;7.446;2022-09-02T12:57:25;4.63;;;0.60;;
36185;SDS011;22228;53.222;7.446;2022-09-02T12:59:57;4.93;;;0.50;;
36185;SDS011;22228;53.222;7.446;2022-09-02T13:02:24;2.33;;;0.50;;
36185;SDS011;22228;53.222;7.446;2022-09-02T13:05:01;0.30;;;0.30;;
36185;SDS011;22228;53.222;7.446;2022-09-02T13:07:35;0.97;;;0.30;;
36185;SDS011;22228;53.222;7.446;2022-09-02T13:10:22;4.07;;;0.43;;
36185;SDS011;22228;53.222;7.446;2022-09-02T13:12:58;2.00;;;0.50;;
36185;SDS011;22228;53.222;7.446;2022-09-02T13:15:34;3.37;;;0.40;;
36185;SDS011;22228;53.222;7.446;2022-09-02T13:18:12;1.70;;;0.43;;
36185;SDS011;22228;53.222;7.446;2022-09-02T13:21:17;3.07;;;0.40;;
36185;SDS011;22228;53.222;7.446;2022-09-02T13:24:00;2.40;;;0.50;;
36185;SDS011;22228;53.222;7.446;2022-09-02T13:26:49;3.63;;;0.50;;
36185;SDS011;22228;53.222;7.446;2022-09-02T13:32:26;1.90;;;0.40;;
36185;SDS011;22228;53.222;7.446;2022-09-02T13:34:48;1.23;;;0.30;;
36185;SDS011;22228;53.222;7.446;2022-09-02T13:37:25;2.17;;;0.40;;
36185;SDS011;22228;53.222;7.446;2022-09-02T13:39:47;1.57;;;0.40;;
36185;SDS011;22228;53.222;7.446;2022-09-02T13:42:12;2.47;;;0.40;;
36185;SDS011;22228;53.222;7.446;2022-09-02T13:44:33;4.53;;;0.40;;
36185;SDS011;22228;53.222;7.446;2022-09-02T13:46:56;2.70;;;0.50;;
36185;SDS011;22228;53.222;7.446;2022-09-02T13:49:24;3.03;;;0.50;;
36185;SDS011;22228;53.222;7.446;2022-09-02T13:51:46;2.47;;;0.40;;
36185;SDS011;22228;53.222;7.446;2022-09-02T13:54:10;1.73;;;0.50;;
36185;SDS011;22228;53.222;7.446;2022-09-02T13:56:31;1.47;;;0.30;;
36185;SDS011;22228;53.222;7.446;2022-09-02T13:58:52;1.47;;;0.40;;
36185;SDS011;22228;53.222;7.446;2022-09-02T14:01:22;2.63;;;0.40;;
36185;SDS011;22228;53.222;7.446;2022-09-02T14:03:45;3.40;;;0.50;;
36185;SDS011;22228;53.222;7.446;2022-09-02T14:06:09;1.90;;;0.50;;
36185;SDS011;22228;53.222;7.446;2022-09-02T14:08:30;1.60;;;0.40;;
36185;SDS011;22228;53.222;7.446;2022-09-02T14:10:50;5.77;;;0.50;;
36185;SDS011;22228;53.222;7.446;2022-09-02T14:13:13;0.70;;;0.40;;
36185;SDS011;22228;53.222;7.446;2022-09-02T14:15:35;2.80;;;0.40;;
36185;SDS011;22228;53.222;7.446;2022-09-02T14:18:05;5.03;;;0.50;;
36185;SDS011;22228;53.222;7.446;2022-09-02T14:20:28;0.60;;;0.40;;
36185;SDS011;22228;53.222;7.446;2022-09-02T14:22:53;0.70;;;0.33;;
36185;SDS011;22228;53.222;7.446;2022-09-02T14:25:15;4.43;;;0.50;;
36185;SDS011;22228;53.222;7.446;2022-09-02T14:27:36;1.60;;;0.57;;
36185;SDS011;22228;53.222;7.446;2022-09-02T14:29:57;0.57;;;0.40;;
36185;SDS011;22228;53.222;7.446;2022-09-02T14:32:19;2.57;;;0.50;;
36185;SDS011;22228;53.222;7.446;2022-09-02T14:34:41;0.83;;;0.50;;
36185;SDS011;22228;53.222;7.446;2022-09-02T14:37:17;3.70;;;0.40;;
36185;SDS011;22228;53.222;7.446;2022-09-02T14:39:51;0.80;;;0.50;;
36185;SDS011;22228;53.222;7.446;2022-09-02T14:42:12;2.67;;;0.50;;
36185;SDS011;22228;53.222;7.446;2022-09-02T14:44:34;0.97;;;0.40;;
36185;SDS011;22228;53.222;7.446;2022-09-02T14:46:55;0.80;;;0.40;;
36185;SDS011;22228;53.222;7.446;2022-09-02T14:49:18;2.87;;;0.50;;
36185;SDS011;22228;53.222;7.446;2022-09-02T14:51:42;2.70;;;0.50;;
36185;SDS011;22228;53.222;7.446;2022-09-02T14:54:04;2.67;;;0.60;;